Time;durP1;ratioP1;P1;durP2;ratioP2;P2;SDS_P1;SDS_P2;PMS_P1;PMS_P2;Temp;Humidity;BMP_temperature;BMP_pressure;BME280_temperature;BME280_humidity;BME280_pressure;Samples;Min_cycle;Max_cycle;Signal;HPM_P1;HPM_P2
2022/08/11 00:03:13;;;;;;;9.00;3.55;;;;;;;17.64;59.83;101471.13;3539978;82;34094;-80
2022/08/11 00:08:27;;;;;;;8.80;3.23;;;;;;;17.62;60.37;101470.73;3531799;82;98537;-83
2022/08/11 00:13:38;;;;;;;7.50;2.62;;;;;;;17.62;60.74;101472.94;3522434;82;33160;-81
2022/08/11 00:18:50;;;;;;;5.90;2.67;;;;;;;17.61;61.19;101458.80;3521229;82;98532;-81
2022/08/11 00:24:01;;;;;;;5.72;2.67;;;;;;;17.61;61.66;101461.58;3521559;83;33432;-81
2022/08/11 00:29:11;;;;;;;6.22;2.75;;;;;;;17.60;62.06;101463.39;3481298;83;98572;-81
2022/08/11 00:34:13;;;;;;;10.65;2.92;;;;;;;17.61;62.42;101459.41;3487377;83;33033;-81
2022/08/11 00:39:18;;;;;;;7.50;3.08;;;;;;;17.60;63.26;101458.60;3505562;82;98729;-82
2022/08/11 00:44:48;;;;;;;8.75;3.70;;;;;;;17.59;64.78;101458.41;3520170;83;32927;-83
2022/08/11 00:50:22;;;;;;;7.22;2.90;;;;;;;17.59;63.76;101457.02;3488803;83;98314;-81
2022/08/11 00:55:50;;;;;;;9.18;2.95;;;;;;;17.59;63.79;101450.06;3503040;83;33005;-80
2022/08/11 01:01:19;;;;;;;10.90;3.45;;;;;;;17.56;64.32;101453.63;3478239;83;98394;-81
2022/08/11 01:06:28;;;;;;;7.80;3.15;;;;;;;17.55;64.27;101451.27;3472803;83;98817;-81
2022/08/11 01:12:16;;;;;;;6.67;2.72;;;;;;;17.55;64.42;101452.05;3520583;82;80355;-80
2022/08/11 01:17:51;;;;;;;9.93;3.65;;;;;;;17.56;64.46;101461.98;3483303;82;98578;-81
2022/08/11 01:23:47;;;;;;;8.63;3.90;;;;;;;17.58;64.52;101446.27;3545130;81;36369;-80
2022/08/11 01:29:26;;;;;;;9.33;3.30;;;;;;;17.55;64.85;101442.92;3542464;81;98450;-81
2022/08/11 01:34:50;;;;;;;9.08;4.12;;;;;;;17.50;65.22;101446.87;3535403;81;33145;-79
2022/08/11 01:40:02;;;;;;;6.87;3.12;;;;;;;17.42;65.77;101453.66;3550823;81;98442;-81
2022/08/11 01:45:34;;;;;;;9.45;3.17;;;;;;;17.35;66.03;101453.64;3566345;81;33630;-80
2022/08/11 01:51:09;;;;;;;8.08;3.55;;;;;;;17.33;66.16;101449.05;3548853;81;98837;-80
2022/08/11 01:57:06;;;;;;;11.15;3.83;;;;;;;17.31;66.53;101454.81;3567768;81;33406;-80
2022/08/11 02:02:54;;;;;;;11.30;4.37;;;;;;;17.26;67.41;101449.06;3547429;81;26392;-80
2022/08/11 02:08:30;;;;;;;9.15;4.20;;;;;;;17.17;67.77;101455.60;3551379;81;98720;-80
2022/08/11 02:14:03;;;;;;;8.10;3.77;;;;;;;17.14;67.81;101445.28;3549238;81;32990;-79
2022/08/11 02:24:50;;;;;;;7.78;3.92;;;;;;;17.15;67.95;101447.45;3545509;82;33061;-79
2022/08/11 02:30:11;;;;;;;10.53;4.37;;;;;;;17.13;67.84;101439.53;3543409;80;98493;-79
2022/08/11 02:35:35;;;;;;;8.78;3.77;;;;;;;17.11;68.00;101440.50;3535386;82;33424;-79
2022/08/11 02:46:49;;;;;;;9.53;3.83;;;;;;;17.12;68.34;101450.42;3525143;82;98851;-79
2022/08/11 02:52:26;;;;;;;8.08;4.12;;;;;;;17.17;68.43;101443.08;3527918;82;33459;-79
2022/08/11 02:57:30;;;;;;;;;;;;;;;17.19;68.30;101442.11;3521692;82;98722;-79
2022/08/11 03:02:53;;;;;;;8.13;4.08;;;;;;;17.20;69.89;101452.03;3559754;82;32911;-79
2022/08/11 03:08:18;;;;;;;8.60;3.62;;;;;;;17.22;68.63;101457.21;3496165;82;98659;-81
2022/08/11 03:19:19;;;;;;;8.60;3.87;;;;;;;17.20;68.83;101470.70;3563933;82;98499;-79
2022/08/11 03:25:03;;;;;;;8.85;4.55;;;;;;;17.12;68.90;101463.56;3564900;81;26498;-79
2022/08/11 03:30:19;;;;;;;8.80;3.95;;;;;;;17.05;69.09;101469.90;3558155;81;98597;-79
2022/08/11 03:35:20;;;;;;;12.05;3.87;;;;;;;16.99;69.04;101467.31;3552680;81;32879;-79
2022/08/11 03:46:30;;;;;;;10.88;3.98;;;;;;;16.87;69.19;101471.87;3543794;81;33408;-79
2022/08/11 03:51:45;;;;;;;9.98;3.92;;;;;;;16.82;69.11;101477.81;3452256;83;33015;-79
2022/08/11 03:57:07;;;;;;;9.03;3.77;;;;;;;16.75;69.41;101485.34;3547382;81;98527;-79
2022/08/11 04:02:38;;;;;;;12.55;3.80;;;;;;;16.68;69.42;101476.38;3555845;81;33054;-79
2022/08/11 04:08:17;;;;;;;10.70;4.30;;;;;;;16.61;69.51;101475.55;3547030;81;98725;-79
2022/08/11 04:15:58;;;;;;;9.30;4.03;;;;;;;16.57;69.90;101473.38;3541985;81;32944;-80
2022/08/11 04:19:35;;;;;;;8.65;4.08;;;;;;;16.56;70.17;101472.56;3543018;81;98529;-79
2022/08/11 04:25:08;;;;;;;7.62;3.65;;;;;;;16.49;70.08;101478.69;3571710;81;32910;-79
2022/08/11 04:30:29;;;;;;;10.53;4.22;;;;;;;16.44;70.25;101479.06;3554579;81;98564;-79
2022/08/11 04:35:48;;;;;;;9.80;3.95;;;;;;;16.37;70.61;101479.83;3553445;81;32121;-79
2022/08/11 04:41:31;;;;;;;10.70;4.25;;;;;;;16.36;71.00;101477.43;3550983;81;98426;-79
2022/08/11 04:46:50;;;;;;;8.43;4.10;;;;;;;16.36;71.31;101479.59;3551885;81;98970;-79
2022/08/11 05:05:29;;;;;;;8.43;4.17;;;;;;;16.41;72.06;101478.47;3546821;81;33533;-79
2022/08/11 05:09:28;;;;;;;;;;;;;;;16.44;72.24;101477.67;3538244;81;98931;-79
2022/08/11 05:36:47;;;;;;;9.87;4.80;;;;;;;16.62;74.86;101491.06;3500001;82;99029;-79
2022/08/11 05:57:57;;;;;;;10.98;5.25;;;;;;;18.82;75.79;101487.28;3474501;83;98813;-80
2022/08/11 06:03:02;;;;;;;10.78;5.10;;;;;;;19.65;74.28;101476.12;3505339;83;32999;-80
2022/08/11 06:08:06;;;;;;;12.30;5.53;;;;;;;20.44;71.83;101479.85;3491791;83;98968;-81
2022/08/11 06:13:10;;;;;;;11.68;4.95;;;;;;;21.18;70.88;101492.24;3492581;83;33168;-80
2022/08/11 06:18:13;;;;;;;10.72;5.80;;;;;;;21.98;68.99;101494.91;3512950;82;98980;-80
2022/08/11 06:23:19;;;;;;;11.18;5.10;;;;;;;22.59;67.13;101498.31;3531028;81;33003;-81
2022/08/11 06:28:30;;;;;;;11.80;4.40;;;;;;;23.06;65.55;101491.86;3538664;82;98980;-81
2022/08/11 06:33:58;;;;;;;10.65;4.62;;;;;;;23.49;64.19;101480.58;3521348;82;33001;-80
2022/08/11 06:39:17;;;;;;;9.43;4.12;;;;;;;23.71;62.68;101497.70;3516304;81;99631;-80
2022/08/11 06:44:31;;;;;;;10.38;4.47;;;;;;;23.93;62.15;101493.91;3535092;81;91535;-80
2022/08/11 06:55:04;;;;;;;11.12;4.08;;;;;;;24.07;60.03;101482.88;3557261;81;29202;-82
2022/08/11 07:05:56;;;;;;;13.10;3.67;;;;;;;23.96;57.87;101475.36;3555509;81;40476;-81
2022/08/11 07:16:44;;;;;;;8.23;3.22;;;;;;;23.83;57.18;101478.70;3543965;81;98533;-81
2022/08/11 07:32:38;;;;;;;10.10;3.30;;;;;;;23.76;56.18;101477.50;3466950;82;48738;-83
2022/08/11 07:37:49;;;;;;;7.40;3.10;;;;;;;23.75;55.34;101479.50;3532900;81;98904;-81
2022/08/11 07:42:52;;;;;;;7.12;2.75;;;;;;;23.68;55.47;101476.89;3524646;81;32991;-82
2022/08/11 07:53:15;;;;;;;10.20;2.87;;;;;;;23.93;55.65;101470.00;3545145;81;25976;-82
2022/08/11 08:19:49;;;;;;;5.10;1.85;;;;;;;24.15;52.14;101461.14;3510327;82;98663;-81
2022/08/11 08:24:51;;;;;;;5.65;2.40;;;;;;;24.45;52.44;101452.24;3523367;81;25824;-80
2022/08/11 08:35:12;;;;;;;7.90;3.08;;;;;;;25.52;52.74;101459.12;3537624;82;26033;-80
2022/08/11 08:40:14;;;;;;;4.47;2.50;;;;;;;26.27;51.38;101458.08;3553202;81;98303;-81
2022/08/11 08:45:17;;;;;;;9.08;2.60;;;;;;;26.91;50.48;101460.84;3559935;81;25920;-82
2022/08/11 08:50:22;;;;;;;12.37;2.70;;;;;;;27.63;48.33;101454.66;3547700;81;98473;-80
2022/08/11 08:55:25;;;;;;;;;;;;;;;28.01;47.88;101453.61;3570624;81;26375;-81
2022/08/11 09:00:39;;;;;;;4.22;2.12;;;;;;;28.90;46.36;101450.45;3537009;81;84543;-81
2022/08/11 09:05:40;;;;;;;4.67;2.60;;;;;;;29.66;46.44;101444.42;3493292;82;55548;-81
2022/08/11 09:10:41;;;;;;;4.67;2.27;;;;;;;29.88;44.63;101439.20;3538097;81;98381;-82
2022/08/11 09:15:44;;;;;;;5.70;2.50;;;;;;;30.18;43.78;101445.10;3514939;81;33503;-82
2022/08/11 09:20:46;;;;;;;4.65;2.27;;;;;;;30.42;43.03;101443.61;3510964;82;98582;-81
2022/08/11 09:31:13;;;;;;;7.15;2.37;;;;;;;30.53;41.78;101439.55;3490704;83;98502;-79
2022/08/11 09:41:38;;;;;;;4.35;2.25;;;;;;;30.86;39.63;101435.87;3497922;83;26652;-80
2022/08/11 09:46:40;;;;;;;5.17;2.33;;;;;;;30.99;39.08;101437.12;3492019;83;98875;-81
2022/08/11 09:51:41;;;;;;;7.70;2.37;;;;;;;31.58;39.72;101422.06;3503078;83;26223;-80
2022/08/11 10:02:06;;;;;;;3.25;1.82;;;;;;;32.70;36.79;101423.59;3495788;83;25896;-83
2022/08/11 10:07:09;;;;;;;6.70;2.00;;;;;;;33.32;37.38;101420.06;3490122;83;98530;-82
2022/08/11 10:12:24;;;;;;;6.62;1.75;;;;;;;34.20;36.07;101413.90;3513897;82;26419;-81
2022/08/11 10:17:29;;;;;;;4.60;2.05;;;;;;;34.72;35.51;101408.66;3495884;83;98510;-80
2022/08/11 10:27:57;;;;;;;3.52;1.65;;;;;;;35.43;33.91;101400.63;3517257;80;98749;-80
2022/08/11 10:38:17;;;;;;;5.12;1.82;;;;;;;36.38;30.44;101380.17;3548009;80;85348;-80
2022/08/11 10:43:20;;;;;;;4.97;2.12;;;;;;;36.73;30.98;101366.58;3571473;81;26081;-83
2022/08/11 10:48:27;;;;;;;4.50;1.97;;;;;;;35.80;30.33;101365.17;3515608;81;98691;-81
2022/08/11 10:58:49;;;;;;;3.30;1.62;;;;;;;35.63;30.17;101356.53;3537658;81;98848;-81
2022/08/11 11:04:10;;;;;;;2.33;1.60;;;;;;;35.62;29.99;101350.66;3525142;81;26019;-80
2022/08/11 11:09:31;;;;;;;10.13;2.33;;;;;;;35.04;29.25;101351.25;3552931;80;98458;-81
2022/08/11 11:19:58;;;;;;;3.52;1.87;;;;;;;35.70;28.44;101334.48;3540375;81;98703;-82
2022/08/11 11:25:17;;;;;;;4.95;2.00;;;;;;;35.88;27.56;101327.49;3553704;81;25875;-82
2022/08/11 11:30:18;;;;;;;3.00;1.92;;;;;;;35.94;27.43;101319.64;3528597;82;98395;-82
2022/08/11 11:35:59;;;;;;;3.40;1.82;;;;;;;35.93;27.10;101318.09;3556931;81;25970;-81
2022/08/11 11:46:19;;;;;;;4.60;1.80;;;;;;;36.66;27.53;101322.71;3551650;81;98420;-82
2022/08/11 11:51:23;;;;;;;2.77;1.80;;;;;;;36.97;25.75;101309.20;3561423;81;26301;-82
2022/08/11 11:56:25;;;;;;;4.47;2.27;;;;;;;36.75;25.49;101309.45;3526851;81;98845;-82
2022/08/11 12:01:27;;;;;;;4.45;2.02;;;;;;;36.11;25.87;101310.90;3518141;81;26015;-82
2022/08/11 12:06:28;;;;;;;5.30;1.90;;;;;;;36.24;26.18;101302.50;3511075;81;99773;-81
2022/08/11 12:16:50;;;;;;;4.30;2.10;;;;;;;35.38;26.04;101307.58;3555124;81;98729;-80
2022/08/11 12:27:20;;;;;;;3.60;2.15;;;;;;;35.44;26.45;101277.61;3561804;81;98457;-80
2022/08/11 12:32:24;;;;;;;18.52;3.15;;;;;;;35.36;26.89;101268.69;3559665;82;26086;-81
2022/08/11 12:37:45;;;;;;;3.87;1.85;;;;;;;35.48;25.62;101273.03;3555807;82;98761;-83
2022/08/11 12:53:39;;;;;;;2.98;1.50;;;;;;;34.78;25.96;101250.70;3546569;82;28913;-82
2022/08/11 12:58:42;;;;;;;5.28;1.90;;;;;;;35.29;26.29;101245.67;3539692;82;99045;-85
2022/08/11 13:09:04;;;;;;;3.58;1.55;;;;;;;34.77;25.77;101238.34;3536419;81;98520;-84
2022/08/11 13:14:05;;;;;;;3.10;1.42;;;;;;;34.97;26.83;101232.30;3554852;81;25944;-82
2022/08/11 13:19:07;;;;;;;4.08;1.85;;;;;;;35.28;26.28;101226.16;3511026;81;98572;-80
2022/08/11 13:24:08;;;;;;;2.65;1.47;;;;;;;35.27;25.05;101220.32;3547336;81;39212;-80
2022/08/11 13:29:10;;;;;;;5.55;1.82;;;;;;;34.83;26.52;101217.00;3549944;81;98514;-80
2022/08/11 13:34:12;;;;;;;3.58;2.05;;;;;;;35.22;26.72;101208.21;3546711;81;26146;-82
2022/08/11 13:39:14;;;;;;;3.25;1.85;;;;;;;34.44;24.79;101206.96;3555527;81;98468;-83
2022/08/11 13:44:17;;;;;;;5.15;2.08;;;;;;;33.56;25.68;101206.30;3558286;81;26421;-81
2022/08/11 13:49:20;;;;;;;3.93;1.90;;;;;;;33.05;26.43;101200.98;3526513;81;98827;-81
2022/08/11 13:54:25;;;;;;;4.65;1.82;;;;;;;32.87;27.03;101192.88;3548478;81;26595;-80
2022/08/11 13:59:27;;;;;;;8.85;1.92;;;;;;;33.02;27.71;101185.54;3523204;81;98408;-81
2022/08/11 14:04:47;;;;;;;4.03;1.75;;;;;;;32.89;27.78;101173.81;3553745;81;25956;-83
2022/08/11 14:09:53;;;;;;;6.00;1.72;;;;;;;32.61;27.10;101158.64;3543271;81;98347;-79
2022/08/11 14:15:03;;;;;;;4.70;2.12;;;;;;;32.57;28.71;101150.97;3546998;82;25830;-81
2022/08/11 14:20:07;;;;;;;4.60;1.77;;;;;;;32.51;27.66;101153.02;3536330;81;98585;-80
2022/08/11 14:25:11;;;;;;;6.72;1.82;;;;;;;32.42;28.67;101148.31;3505025;82;25821;-79
2022/08/11 14:30:54;;;;;;;4.70;1.65;;;;;;;32.55;28.00;101151.50;3502157;82;98444;-82
2022/08/11 14:35:16;;;;;;;4.80;1.90;;;;;;;32.04;27.23;101158.80;3504418;83;26081;-81
2022/08/11 14:50:57;;;;;;;4.78;1.90;;;;;;;31.28;27.76;101150.38;3494135;82;98485;-80
2022/08/11 15:06:38;;;;;;;3.77;1.90;;;;;;;31.11;28.51;101147.33;3506441;82;98458;-80
2022/08/11 15:17:07;;;;;;;8.88;2.52;;;;;;;31.14;29.86;101146.34;3545227;82;98839;-81
2022/08/11 15:38:18;;;;;;;6.30;1.85;;;;;;;30.27;28.70;101128.95;3479305;82;99348;-80
2022/08/11 15:49:03;;;;;;;2.55;1.65;;;;;;;29.85;28.69;101130.00;3486326;83;98880;-81
2022/08/11 15:54:17;;;;;;;5.60;1.82;;;;;;;29.85;28.99;101134.27;3496962;83;25841;-81
2022/08/11 16:04:41;;;;;;;3.45;1.70;;;;;;;29.61;29.76;101131.55;3506965;83;26278;-80
2022/08/11 16:09:51;;;;;;;5.65;2.08;;;;;;;29.49;29.97;101122.69;3489241;83;98471;-81
2022/08/11 16:20:21;;;;;;;2.70;1.70;;;;;;;28.97;28.86;101131.25;3493032;82;99068;-82
2022/08/11 16:25:24;;;;;;;3.67;1.90;;;;;;;28.67;29.17;101133.85;3516773;81;25908;-82
2022/08/11 16:30:27;;;;;;;2.75;1.57;;;;;;;28.45;29.44;101130.56;3568217;80;98390;-81
2022/08/11 16:40:53;;;;;;;4.95;1.65;;;;;;;28.08;30.92;101134.23;3553697;81;98516;-81
2022/08/11 16:51:19;;;;;;;3.52;2.00;;;;;;;27.94;31.14;101129.26;3546677;82;98490;-81
2022/08/11 16:56:24;;;;;;;3.27;1.62;;;;;;;27.62;31.10;101128.58;3542439;81;98449;-84
2022/08/11 17:01:25;;;;;;;5.10;1.90;;;;;;;27.48;31.40;101127.86;3554652;82;26823;-82
2022/08/11 17:17:18;;;;;;;4.60;2.00;;;;;;;26.98;31.87;101127.12;3537757;82;98461;-82
2022/08/11 17:27:42;;;;;;;3.83;2.00;;;;;;;26.68;32.30;101126.67;3511336;82;98690;-80
2022/08/11 17:38:15;;;;;;;2.90;1.57;;;;;;;26.52;33.46;101127.56;3508694;82;98782;-82
2022/08/11 17:48:46;;;;;;;5.50;1.47;;;;;;;26.21;33.95;101131.14;3518059;83;98677;-82
2022/08/11 18:04:28;;;;;;;6.47;2.25;;;;;;;25.75;35.03;101126.56;3543004;82;33527;-80
